Nazareth, Israel
Current Conditions -  °F | °C
As of 8:50 PM on Thursday 18 Dec 2014 (Local Time) from LLHA Reporting Station
Clear Clear  
Wind Chill: 61°   Ceiling: Unl
Heat Index: 61°   Visibility: 6mi
Dew Point: 46°   Wind: 8mph
Humidity: 59%   Direction: 120°ESE
Pressure: 30.09"   Gusts: NA
Location:  32.69°N, 35.31°E
Report Text: LLHA 181750Z 12007KT CAVOK 16/08 Q1019 RMK SCT140
Loading
Personal Weather Stations






























Interactive Weather Map New forecast layout! Learn more

10-Day Weather Forecast

Advertisements
Track Severe Weather on mobile